sensor_id;sensor_type;location;lat;lon;timestamp;pressure;altitude;pressure_sealevel;temperature;humidity
13420;BME280;6781;58.440;15.470;2023-11-22T00:01:01;103523.16;;;-0.51;100.00
13420;BME280;6781;58.440;15.470;2023-11-22T00:03:28;103521.34;;;-0.58;100.00
13420;BME280;6781;58.440;15.470;2023-11-22T00:05:55;103523.16;;;-0.51;100.00
13420;BME280;6781;58.440;15.470;2023-11-22T00:08:21;103529.22;;;-0.45;100.00
13420;BME280;6781;58.440;15.470;2023-11-22T00:10:48;103527.34;;;-0.55;100.00
13420;BME280;6781;58.440;15.470;2023-11-22T00:13:15;103542.72;;;-0.50;100.00
13420;BME280;6781;58.440;15.470;2023-11-22T00:15:43;103576.81;;;-0.42;100.00
13420;BME280;6781;58.440;15.470;2023-11-22T00:18:10;103598.19;;;-0.34;100.00
13420;BME280;6781;58.440;15.470;2023-11-22T00:20:36;103605.75;;;-0.40;100.00
13420;BME280;6781;58.440;15.470;2023-11-22T00:23:03;103612.69;;;-0.31;100.00
13420;BME280;6781;58.440;15.470;2023-11-22T00:25:30;103608.31;;;-0.40;100.00
13420;BME280;6781;58.440;15.470;2023-11-22T00:27:57;103610.81;;;-0.43;100.00
13420;BME280;6781;58.440;15.470;2023-11-22T00:30:24;103626.97;;;-0.41;100.00
13420;BME280;6781;58.440;15.470;2023-11-22T00:32:53;103699.22;;;-0.41;100.00
13420;BME280;6781;58.440;15.470;2023-11-22T00:35:19;103711.22;;;-0.35;100.00
13420;BME280;6781;58.440;15.470;2023-11-22T00:37:46;103700.06;;;-0.40;100.00
13420;BME280;6781;58.440;15.470;2023-11-22T00:40:13;103701.84;;;-0.36;100.00
13420;BME280;6781;58.440;15.470;2023-11-22T00:42:40;103680.34;;;-0.50;100.00
13420;BME280;6781;58.440;15.470;2023-11-22T00:45:08;103684.69;;;-0.46;100.00
13420;BME280;6781;58.440;15.470;2023-11-22T00:47:35;103705.13;;;-0.43;100.00
13420;BME280;6781;58.440;15.470;2023-11-22T00:50:03;103684.63;;;-0.49;100.00
13420;BME280;6781;58.440;15.470;2023-11-22T00:52:30;103673.50;;;-0.53;100.00
13420;BME280;6781;58.440;15.470;2023-11-22T00:54:57;103696.69;;;-0.39;100.00
13420;BME280;6781;58.440;15.470;2023-11-22T00:57:24;103699.31;;;-0.35;100.00
13420;BME280;6781;58.440;15.470;2023-11-22T00:59:52;103684.78;;;-0.40;100.00
13420;BME280;6781;58.440;15.470;2023-11-22T01:02:19;103668.56;;;-0.45;100.00
13420;BME280;6781;58.440;15.470;2023-11-22T01:04:45;103668.47;;;-0.50;100.00
13420;BME280;6781;58.440;15.470;2023-11-22T01:07:13;103663.28;;;-0.54;100.00
13420;BME280;6781;58.440;15.470;2023-11-22T01:09:40;103659.03;;;-0.55;100.00
13420;BME280;6781;58.440;15.470;2023-11-22T01:12:07;103653.06;;;-0.57;100.00
13420;BME280;6781;58.440;15.470;2023-11-22T01:14:34;103648.78;;;-0.58;100.00
13420;BME280;6781;58.440;15.470;2023-11-22T01:17:01;103656.47;;;-0.57;100.00
13420;BME280;6781;58.440;15.470;2023-11-22T01:19:27;103662.50;;;-0.50;100.00
13420;BME280;6781;58.440;15.470;2023-11-22T01:21:54;103658.16;;;-0.56;100.00
13420;BME280;6781;58.440;15.470;2023-11-22T01:24:22;103660.75;;;-0.54;100.00
13420;BME280;6781;58.440;15.470;2023-11-22T01:26:50;103658.28;;;-0.50;100.00
13420;BME280;6781;58.440;15.470;2023-11-22T01:29:16;103647.16;;;-0.53;100.00
13420;BME280;6781;58.440;15.470;2023-11-22T01:31:43;103635.22;;;-0.57;100.00
13420;BME280;6781;58.440;15.470;2023-11-22T01:34:10;103624.91;;;-0.63;100.00
13420;BME280;6781;58.440;15.470;2023-11-22T01:36:39;103648.81;;;-0.57;100.00
13420;BME280;6781;58.440;15.470;2023-11-22T01:39:08;103640.31;;;-0.57;100.00
13420;BME280;6781;58.440;15.470;2023-11-22T01:41:36;103632.50;;;-0.67;100.00
13420;BME280;6781;58.440;15.470;2023-11-22T01:44:03;103647.75;;;-0.68;100.00
13420;BME280;6781;58.440;15.470;2023-11-22T01:46:30;103628.13;;;-0.74;100.00
13420;BME280;6781;58.440;15.470;2023-11-22T01:48:57;103624.69;;;-0.76;100.00
13420;BME280;6781;58.440;15.470;2023-11-22T01:51:24;103635.00;;;-0.70;100.00
13420;BME280;6781;58.440;15.470;2023-11-22T01:53:51;103635.00;;;-0.70;100.00
13420;BME280;6781;58.440;15.470;2023-11-22T01:56:19;103620.44;;;-0.77;100.00
13420;BME280;6781;58.440;15.470;2023-11-22T01:58:47;103613.59;;;-0.79;100.00
13420;BME280;6781;58.440;15.470;2023-11-22T02:01:14;103607.69;;;-0.77;100.00
13420;BME280;6781;58.440;15.470;2023-11-22T02:03:41;103597.44;;;-0.81;100.00
13420;BME280;6781;58.440;15.470;2023-11-22T02:06:08;103605.94;;;-0.79;100.00
13420;BME280;6781;58.440;15.470;2023-11-22T02:08:35;103602.50;;;-0.83;100.00
13420;BME280;6781;58.440;15.470;2023-11-22T02:11:02;103622.16;;;-0.76;100.00
13420;BME280;6781;58.440;15.470;2023-11-22T02:13:29;103600.69;;;-0.90;100.00
13420;BME280;6781;58.440;15.470;2023-11-22T02:15:57;103625.53;;;-0.77;100.00
13420;BME280;6781;58.440;15.470;2023-11-22T02:18:26;103604.16;;;-0.85;100.00
13420;BME280;6781;58.440;15.470;2023-11-22T02:20:53;103609.31;;;-0.82;100.00
13420;BME280;6781;58.440;15.470;2023-11-22T02:23:21;103627.97;;;-0.83;100.00
13420;BME280;6781;58.440;15.470;2023-11-22T02:25:47;103618.59;;;-0.85;100.00
13420;BME280;6781;58.440;15.470;2023-11-22T02:28:14;103634.72;;;-0.85;100.00
13420;BME280;6781;58.440;15.470;2023-11-22T02:30:41;103616.84;;;-0.88;100.00
13420;BME280;6781;58.440;15.470;2023-11-22T02:33:08;103628.13;;;-0.74;100.00
13420;BME280;6781;58.440;15.470;2023-11-22T02:35:35;103620.31;;;-0.83;100.00
13420;BME280;6781;58.440;15.470;2023-11-22T02:38:02;103625.41;;;-0.83;100.00
13420;BME280;6781;58.440;15.470;2023-11-22T02:40:30;103613.50;;;-0.85;100.00
13420;BME280;6781;58.440;15.470;2023-11-22T02:42:57;103590.44;;;-0.93;100.00
13420;BME280;6781;58.440;15.470;2023-11-22T02:45:26;103586.94;;;-0.98;100.00
13420;BME280;6781;58.440;15.470;2023-11-22T02:47:53;103590.28;;;-1.02;100.00
13420;BME280;6781;58.440;15.470;2023-11-22T02:50:20;103589.38;;;-1.04;100.00
13420;BME280;6781;58.440;15.470;2023-11-22T02:52:47;103596.13;;;-1.06;100.00
13420;BME280;6781;58.440;15.470;2023-11-22T02:55:14;103585.13;;;-1.05;100.00
13420;BME280;6781;58.440;15.470;2023-11-22T02:57:42;103585.16;;;-1.04;100.00
13420;BME280;6781;58.440;15.470;2023-11-22T03:00:10;103573.09;;;-1.12;100.00
13420;BME280;6781;58.440;15.470;2023-11-22T03:05:14;103607.44;;;-0.92;100.00
13420;BME280;6781;58.440;15.470;2023-11-22T03:07:41;103607.38;;;-0.95;100.00
13420;BME280;6781;58.440;15.470;2023-11-22T03:10:08;103607.38;;;-0.95;100.00
13420;BME280;6781;58.440;15.470;2023-11-22T03:12:35;103599.41;;;-1.13;100.00
13420;BME280;6781;58.440;15.470;2023-11-22T03:15:04;103626.03;;;-0.96;100.00
13420;BME280;6781;58.440;15.470;2023-11-22T03:17:31;103621.72;;;-1.00;100.00
13420;BME280;6781;58.440;15.470;2023-11-22T03:19:58;103619.94;;;-1.04;100.00
13420;BME280;6781;58.440;15.470;2023-11-22T03:22:25;103631.03;;;-1.01;100.00
13420;BME280;6781;58.440;15.470;2023-11-22T03:24:52;103642.16;;;-0.97;100.00
13420;BME280;6781;58.440;15.470;2023-11-22T03:27:19;103658.38;;;-0.92;100.00
13420;BME280;6781;58.440;15.470;2023-11-22T03:29:47;103635.28;;;-1.01;100.00
13420;BME280;6781;58.440;15.470;2023-11-22T03:32:15;103634.56;;;-0.94;100.00
13420;BME280;6781;58.440;15.470;2023-11-22T03:34:42;103609.78;;;-1.03;100.00
13420;BME280;6781;58.440;15.470;2023-11-22T03:37:09;103620.94;;;-0.96;100.00
13420;BME280;6781;58.440;15.470;2023-11-22T03:39:36;103619.34;;;-0.91;100.00
13420;BME280;6781;58.440;15.470;2023-11-22T03:42:02;103604.81;;;-0.95;100.00
13420;BME280;6781;58.440;15.470;2023-11-22T03:44:29;103615.13;;;-0.89;100.00
13420;BME280;6781;58.440;15.470;2023-11-22T03:46:56;103604.91;;;-0.90;100.00
13420;BME280;6781;58.440;15.470;2023-11-22T03:49:24;103612.56;;;-0.89;100.00
13420;BME280;6781;58.440;15.470;2023-11-22T03:51:51;103613.41;;;-0.90;100.00
13420;BME280;6781;58.440;15.470;2023-11-22T03:54:18;103611.81;;;-0.85;100.00
13420;BME280;6781;58.440;15.470;2023-11-22T03:56:44;103599.94;;;-0.83;100.00
13420;BME280;6781;58.440;15.470;2023-11-22T03:59:11;103599.13;;;-0.82;100.00
13420;BME280;6781;58.440;15.470;2023-11-22T04:01:39;103576.13;;;-0.85;100.00
13420;BME280;6781;58.440;15.470;2023-11-22T04:04:05;103567.63;;;-0.85;100.00
13420;BME280;6781;58.440;15.470;2023-11-22T04:06:34;103561.69;;;-0.86;100.00
13420;BME280;6781;58.440;15.470;2023-11-22T04:09:01;103553.22;;;-0.85;100.00
13420;BME280;6781;58.440;15.470;2023-11-22T04:11:28;103538.75;;;-0.87;100.00
13420;BME280;6781;58.440;15.470;2023-11-22T04:13:56;103533.56;;;-0.92;100.00
13420;BME280;6781;58.440;15.470;2023-11-22T04:16:22;103526.75;;;-0.93;100.00
13420;BME280;6781;58.440;15.470;2023-11-22T04:18:49;103519.16;;;-0.90;100.00
13420;BME280;6781;58.440;15.470;2023-11-22T04:21:16;103508.97;;;-0.90;100.00
13420;BME280;6781;58.440;15.470;2023-11-22T04:23:44;103512.31;;;-0.94;100.00
13420;BME280;6781;58.440;15.470;2023-11-22T04:26:11;103521.66;;;-0.93;100.00
13420;BME280;6781;58.440;15.470;2023-11-22T04:28:37;103531.09;;;-0.87;100.00
13420;BME280;6781;58.440;15.470;2023-11-22T04:31:04;103518.19;;;-0.98;100.00
13420;BME280;6781;58.440;15.470;2023-11-22T04:33:31;103523.31;;;-0.96;100.00
13420;BME280;6781;58.440;15.470;2023-11-22T04:35:56;103530.19;;;-0.91;100.00
13420;BME280;6781;58.440;15.470;2023-11-22T04:38:23;103544.66;;;-0.88;100.00
13420;BME280;6781;58.440;15.470;2023-11-22T04:40:51;103535.25;;;-0.92;100.00
13420;BME280;6781;58.440;15.470;2023-11-22T04:43:18;103552.28;;;-0.90;100.00
13420;BME280;6781;58.440;15.470;2023-11-22T04:45:45;103551.41;;;-0.92;100.00
13420;BME280;6781;58.440;15.470;2023-11-22T04:48:11;103559.91;;;-0.90;100.00
13420;BME280;6781;58.440;15.470;2023-11-22T04:50:40;103559.91;;;-0.90;100.00
13420;BME280;6781;58.440;15.470;2023-11-22T04:53:07;103555.75;;;-0.85;100.00
13420;BME280;6781;58.440;15.470;2023-11-22T04:55:34;103550.63;;;-0.86;100.00
13420;BME280;6781;58.440;15.470;2023-11-22T04:58:02;103550.63;;;-0.86;100.00
13420;BME280;6781;58.440;15.470;2023-11-22T05:00:29;103542.97;;;-0.88;100.00
13420;BME280;6781;58.440;15.470;2023-11-22T05:02:56;103542.13;;;-0.87;100.00
13420;BME280;6781;58.440;15.470;2023-11-22T05:05:22;103541.31;;;-0.86;100.00
13420;BME280;6781;58.440;15.470;2023-11-22T05:07:49;103548.16;;;-0.82;100.00
13420;BME280;6781;58.440;15.470;2023-11-22T05:10:16;103552.41;;;-0.82;100.00
13420;BME280;6781;58.440;15.470;2023-11-22T05:12:43;103537.03;;;-0.88;100.00
13420;BME280;6781;58.440;15.470;2023-11-22T05:15:11;103543.91;;;-0.83;100.00
13420;BME280;6781;58.440;15.470;2023-11-22T05:17:39;103534.44;;;-0.90;100.00
13420;BME280;6781;58.440;15.470;2023-11-22T05:20:06;103527.63;;;-0.91;100.00
13420;BME280;6781;58.440;15.470;2023-11-22T05:22:34;103528.63;;;-0.83;100.00
13420;BME280;6781;58.440;15.470;2023-11-22T05:25:01;103520.94;;;-0.86;100.00
13420;BME280;6781;58.440;15.470;2023-11-22T05:27:28;103524.34;;;-0.84;100.00
13420;BME280;6781;58.440;15.470;2023-11-22T05:29:56;103522.66;;;-0.83;100.00
13420;BME280;6781;58.440;15.470;2023-11-22T05:32:25;103516.75;;;-0.82;100.00
13420;BME280;6781;58.440;15.470;2023-11-22T05:34:51;103509.13;;;-0.81;100.00
13420;BME280;6781;58.440;15.470;2023-11-22T05:37:18;103478.47;;;-0.87;100.00
13420;BME280;6781;58.440;15.470;2023-11-22T05:39:45;103486.97;;;-0.85;100.00
13420;BME280;6781;58.440;15.470;2023-11-22T05:42:11;103492.06;;;-0.85;100.00
13420;BME280;6781;58.440;15.470;2023-11-22T05:44:38;103491.97;;;-0.91;100.00
13420;BME280;6781;58.440;15.470;2023-11-22T05:47:05;103488.63;;;-0.88;100.00
13420;BME280;6781;58.440;15.470;2023-11-22T05:49:34;103488.69;;;-0.84;100.00
13420;BME280;6781;58.440;15.470;2023-11-22T05:52:01;103485.28;;;-0.86;100.00
13420;BME280;6781;58.440;15.470;2023-11-22T05:54:29;103473.31;;;-0.90;100.00
13420;BME280;6781;58.440;15.470;2023-11-22T05:56:57;103478.50;;;-0.84;100.00
13420;BME280;6781;58.440;15.470;2023-11-22T05:59:23;103470.88;;;-0.84;100.00
13420;BME280;6781;58.440;15.470;2023-11-22T06:01:50;103465.75;;;-0.85;100.00
13420;BME280;6781;58.440;15.470;2023-11-22T06:04:17;103469.22;;;-0.80;100.00
13420;BME280;6781;58.440;15.470;2023-11-22T06:06:45;103470.94;;;-0.79;100.00
13420;BME280;6781;58.440;15.470;2023-11-22T06:09:11;103456.41;;;-0.85;100.00
13420;BME280;6781;58.440;15.470;2023-11-22T06:11:39;103459.94;;;-0.77;100.00
13420;BME280;6781;58.440;15.470;2023-11-22T06:14:06;103454.84;;;-0.77;100.00
13420;BME280;6781;58.440;15.470;2023-11-22T06:16:32;103439.59;;;-0.74;100.00
13420;BME280;6781;58.440;15.470;2023-11-22T06:18:59;103453.16;;;-0.75;100.00
13420;BME280;6781;58.440;15.470;2023-11-22T06:21:26;103447.22;;;-0.75;100.00
13420;BME280;6781;58.440;15.470;2023-11-22T06:23:55;103451.53;;;-0.70;100.00
13420;BME280;6781;58.440;15.470;2023-11-22T06:26:28;103438.66;;;-0.80;100.00
13420;BME280;6781;58.440;15.470;2023-11-22T06:28:55;103446.34;;;-0.76;100.00
13420;BME280;6781;58.440;15.470;2023-11-22T06:31:22;103450.66;;;-0.73;100.00
13420;BME280;6781;58.440;15.470;2023-11-22T06:33:48;103445.56;;;-0.72;100.00
13420;BME280;6781;58.440;15.470;2023-11-22T06:36:17;103425.22;;;-0.70;100.00
13420;BME280;6781;58.440;15.470;2023-11-22T06:38:45;103418.44;;;-0.68;100.00
13420;BME280;6781;58.440;15.470;2023-11-22T06:41:16;103406.47;;;-0.74;100.00
13420;BME280;6781;58.440;15.470;2023-11-22T06:43:43;103403.06;;;-0.74;100.00
13420;BME280;6781;58.440;15.470;2023-11-22T06:46:10;103405.69;;;-0.70;100.00
13420;BME280;6781;58.440;15.470;2023-11-22T06:48:36;103398.03;;;-0.70;100.00
13420;BME280;6781;58.440;15.470;2023-11-22T06:51:04;103398.88;;;-0.71;100.00
13420;BME280;6781;58.440;15.470;2023-11-22T06:53:32;103394.69;;;-0.67;100.00
13420;BME280;6781;58.440;15.470;2023-11-22T06:55:58;103376.84;;;-0.66;100.00
13420;BME280;6781;58.440;15.470;2023-11-22T06:58:27;103375.19;;;-0.63;100.00
13420;BME280;6781;58.440;15.470;2023-11-22T07:00:54;103362.47;;;-0.62;100.00
13420;BME280;6781;58.440;15.470;2023-11-22T07:03:22;103349.78;;;-0.57;100.00
13420;BME280;6781;58.440;15.470;2023-11-22T07:05:48;103346.41;;;-0.56;100.00
13420;BME280;6781;58.440;15.470;2023-11-22T07:08:15;103344.69;;;-0.57;100.00
13420;BME280;6781;58.440;15.470;2023-11-22T07:10:42;103351.53;;;-0.53;100.00
13420;BME280;6781;58.440;15.470;2023-11-22T07:13:10;103349.81;;;-0.54;100.00
13420;BME280;6781;58.440;15.470;2023-11-22T07:15:39;103349.81;;;-0.54;100.00
13420;BME280;6781;58.440;15.470;2023-11-22T07:18:06;103343.00;;;-0.55;100.00
13420;BME280;6781;58.440;15.470;2023-11-22T07:20:35;103340.50;;;-0.51;100.00
13420;BME280;6781;58.440;15.470;2023-11-22T07:23:02;103335.44;;;-0.49;100.00
13420;BME280;6781;58.440;15.470;2023-11-22T07:25:28;103333.78;;;-0.46;100.00
13420;BME280;6781;58.440;15.470;2023-11-22T07:27:56;103306.59;;;-0.45;100.00
13420;BME280;6781;58.440;15.470;2023-11-22T07:30:24;103288.75;;;-0.45;100.00
13420;BME280;6781;58.440;15.470;2023-11-22T07:32:56;103270.03;;;-0.47;100.00
13420;BME280;6781;58.440;15.470;2023-11-22T07:35:24;103258.03;;;-0.57;100.00
13420;BME280;6781;58.440;15.470;2023-11-22T07:37:51;103229.09;;;-0.62;100.00
13420;BME280;6781;58.440;15.470;2023-11-22T07:40:19;103224.00;;;-0.62;100.00
13420;BME280;6781;58.440;15.470;2023-11-22T07:42:47;103190.88;;;-0.64;100.00
13420;BME280;6781;58.440;15.470;2023-11-22T07:45:14;103178.94;;;-0.68;100.00
13420;BME280;6781;58.440;15.470;2023-11-22T07:47:42;103161.06;;;-0.73;100.00
13420;BME280;6781;58.440;15.470;2023-11-22T07:50:10;103167.09;;;-0.64;100.00
13420;BME280;6781;58.440;15.470;2023-11-22T07:52:37;103163.66;;;-0.67;100.00
13420;BME280;6781;58.440;15.470;2023-11-22T07:55:05;103150.94;;;-0.67;100.00
13420;BME280;6781;58.440;15.470;2023-11-22T07:57:33;103141.63;;;-0.61;100.00
13420;BME280;6781;58.440;15.470;2023-11-22T08:00:00;103134.03;;;-0.55;100.00
13420;BME280;6781;58.440;15.470;2023-11-22T08:02:29;103122.13;;;-0.59;100.00
13420;BME280;6781;58.440;15.470;2023-11-22T08:04:56;103110.25;;;-0.57;100.00
13420;BME280;6781;58.440;15.470;2023-11-22T08:07:24;103106.00;;;-0.55;100.00
13420;BME280;6781;58.440;15.470;2023-11-22T08:09:53;103096.69;;;-0.53;100.00
13420;BME280;6781;58.440;15.470;2023-11-22T08:12:19;103090.75;;;-0.54;100.00
13420;BME280;6781;58.440;15.470;2023-11-22T08:14:48;103073.78;;;-0.50;100.00
13420;BME280;6781;58.440;15.470;2023-11-22T08:17:14;103068.66;;;-0.52;100.00
13420;BME280;6781;58.440;15.470;2023-11-22T08:19:41;103059.34;;;-0.48;100.00
13420;BME280;6781;58.440;15.470;2023-11-22T08:22:08;103047.44;;;-0.49;100.00
13420;BME280;6781;58.440;15.470;2023-11-22T08:24:36;103044.91;;;-0.49;100.00
13420;BME280;6781;58.440;15.470;2023-11-22T08:27:03;103037.25;;;-0.49;100.00
13420;BME280;6781;58.440;15.470;2023-11-22T08:29:32;103031.31;;;-0.47;100.00
13420;BME280;6781;58.440;15.470;2023-11-22T08:31:59;103018.56;;;-0.51;100.00
13420;BME280;6781;58.440;15.470;2023-11-22T08:34:25;103020.25;;;-0.49;100.00
13420;BME280;6781;58.440;15.470;2023-11-22T08:36:52;103008.41;;;-0.45;100.00
13420;BME280;6781;58.440;15.470;2023-11-22T08:39:19;103011.78;;;-0.46;100.00
13420;BME280;6781;58.440;15.470;2023-11-22T08:41:47;103005.84;;;-0.44;100.00
13420;BME280;6781;58.440;15.470;2023-11-22T08:44:15;103011.00;;;-0.36;100.00
13420;BME280;6781;58.440;15.470;2023-11-22T08:46:42;103005.06;;;-0.35;100.00
13420;BME280;6781;58.440;15.470;2023-11-22T08:49:09;102986.38;;;-0.34;100.00
13420;BME280;6781;58.440;15.470;2023-11-22T08:51:36;102980.44;;;-0.31;100.00
13420;BME280;6781;58.440;15.470;2023-11-22T08:54:03;102978.75;;;-0.31;100.00
13420;BME280;6781;58.440;15.470;2023-11-22T08:56:30;102976.19;;;-0.31;100.00
13420;BME280;6781;58.440;15.470;2023-11-22T08:58:58;102967.72;;;-0.27;100.00
13420;BME280;6781;58.440;15.470;2023-11-22T09:01:24;102966.91;;;-0.20;100.00
13420;BME280;6781;58.440;15.470;2023-11-22T09:03:52;102958.38;;;-0.22;100.00
13420;BME280;6781;58.440;15.470;2023-11-22T09:06:18;102933.75;;;-0.18;100.00
13420;BME280;6781;58.440;15.470;2023-11-22T09:08:45;102909.13;;;-0.16;100.00
13420;BME280;6781;58.440;15.470;2023-11-22T09:11:14;102896.38;;;-0.12;100.00
13420;BME280;6781;58.440;15.470;2023-11-22T09:13:42;102895.53;;;-0.09;100.00
13420;BME280;6781;58.440;15.470;2023-11-22T09:16:11;102874.28;;;-0.10;100.00
13420;BME280;6781;58.440;15.470;2023-11-22T09:18:38;102858.97;;;-0.10;100.00
13420;BME280;6781;58.440;15.470;2023-11-22T09:21:05;102860.69;;;-0.03;100.00
13420;BME280;6781;58.440;15.470;2023-11-22T09:23:33;102851.31;;;0.01;100.00
13420;BME280;6781;58.440;15.470;2023-11-22T09:26:01;102832.63;;;0.00;100.00
13420;BME280;6781;58.440;15.470;2023-11-22T09:28:27;102819.88;;;0.00;100.00
13420;BME280;6781;58.440;15.470;2023-11-22T09:30:54;102823.28;;;0.03;100.00
13420;BME280;6781;58.440;15.470;2023-11-22T09:33:28;102816.47;;;0.05;100.00
13420;BME280;6781;58.440;15.470;2023-11-22T09:35:54;102802.03;;;0.07;100.00
13420;BME280;6781;58.440;15.470;2023-11-22T09:38:21;102791.81;;;0.10;100.00
13420;BME280;6781;58.440;15.470;2023-11-22T09:40:48;102778.22;;;0.11;100.00
13420;BME280;6781;58.440;15.470;2023-11-22T09:43:17;102779.06;;;0.13;100.00
13420;BME280;6781;58.440;15.470;2023-11-22T09:45:45;102768.84;;;0.13;100.00
13420;BME280;6781;58.440;15.470;2023-11-22T09:48:14;102745.91;;;0.16;100.00
13420;BME280;6781;58.440;15.470;2023-11-22T09:50:49;102733.16;;;0.19;100.00
13420;BME280;6781;58.440;15.470;2023-11-22T09:53:19;102729.75;;;0.18;100.00
13420;BME280;6781;58.440;15.470;2023-11-22T09:55:48;102722.94;;;0.22;100.00
13420;BME280;6781;58.440;15.470;2023-11-22T09:58:15;102719.53;;;0.23;100.00
13420;BME280;6781;58.440;15.470;2023-11-22T10:00:42;102722.94;;;0.23;100.00
13420;BME280;6781;58.440;15.470;2023-11-22T10:03:09;102703.38;;;0.28;100.00
13420;BME280;6781;58.440;15.470;2023-11-22T10:05:38;102694.84;;;0.29;100.00
13420;BME280;6781;58.440;15.470;2023-11-22T10:08:07;102676.16;;;0.27;100.00
13420;BME280;6781;58.440;15.470;2023-11-22T10:10:34;102671.88;;;0.31;100.00
13420;BME280;6781;58.440;15.470;2023-11-22T10:13:02;102668.47;;;0.35;100.00
13420;BME280;6781;58.440;15.470;2023-11-22T10:15:30;102662.53;;;0.33;100.00
13420;BME280;6781;58.440;15.470;2023-11-22T10:17:58;102642.97;;;0.35;100.00
13420;BME280;6781;58.440;15.470;2023-11-22T10:20:28;102641.25;;;0.39;100.00
13420;BME280;6781;58.440;15.470;2023-11-22T10:23:01;102630.19;;;0.40;100.00
13420;BME280;6781;58.440;15.470;2023-11-22T10:25:30;102619.13;;;0.36;100.00
13420;BME280;6781;58.440;15.470;2023-11-22T10:27:57;102619.13;;;0.39;100.00
13420;BME280;6781;58.440;15.470;2023-11-22T10:30:24;102621.66;;;0.42;100.00
13420;BME280;6781;58.440;15.470;2023-11-22T10:32:53;102612.31;;;0.44;100.00
13420;BME280;6781;58.440;15.470;2023-11-22T10:35:20;102595.28;;;0.46;100.00
13420;BME280;6781;58.440;15.470;2023-11-22T10:37:48;102573.16;;;0.45;100.00
13420;BME280;6781;58.440;15.470;2023-11-22T10:40:15;102549.34;;;0.43;100.00
13420;BME280;6781;58.440;15.470;2023-11-22T10:42:43;102541.69;;;0.48;100.00
13420;BME280;6781;58.440;15.470;2023-11-22T10:45:11;102545.06;;;0.51;100.00
13420;BME280;6781;58.440;15.470;2023-11-22T10:47:38;102543.34;;;0.52;100.00
13420;BME280;6781;58.440;15.470;2023-11-22T10:50:07;102537.38;;;0.54;100.00
13420;BME280;6781;58.440;15.470;2023-11-22T10:52:35;102545.88;;;0.56;100.00
13420;BME280;6781;58.440;15.470;2023-11-22T10:55:03;102538.22;;;0.58;100.00
13420;BME280;6781;58.440;15.470;2023-11-22T10:57:31;102518.66;;;0.58;100.00
13420;BME280;6781;58.440;15.470;2023-11-22T11:00:00;102508.44;;;0.58;100.00
13420;BME280;6781;58.440;15.470;2023-11-22T11:02:31;102491.38;;;0.63;100.00
13420;BME280;6781;58.440;15.470;2023-11-22T11:04:59;102489.69;;;0.62;100.00
13420;BME280;6781;58.440;15.470;2023-11-22T11:07:32;102472.66;;;0.64;100.00
13420;BME280;6781;58.440;15.470;2023-11-22T11:10:03;102461.56;;;0.67;100.00
13420;BME280;6781;58.440;15.470;2023-11-22T11:12:31;102453.00;;;0.74;100.00
13420;BME280;6781;58.440;15.470;2023-11-22T11:14:57;102430.03;;;0.73;100.00
13420;BME280;6781;58.440;15.470;2023-11-22T11:17:26;102414.69;;;0.76;100.00
13420;BME280;6781;58.440;15.470;2023-11-22T11:19:53;102398.50;;;0.78;100.00
13420;BME280;6781;58.440;15.470;2023-11-22T11:22:21;102367.91;;;0.75;100.00
13420;BME280;6781;58.440;15.470;2023-11-22T11:24:47;102355.13;;;0.77;100.00
13420;BME280;6781;58.440;15.470;2023-11-22T11:27:15;102343.22;;;0.76;100.00
13420;BME280;6781;58.440;15.470;2023-11-22T11:29:44;102338.94;;;0.76;100.00
13420;BME280;6781;58.440;15.470;2023-11-22T11:32:13;102340.66;;;0.76;100.00
13420;BME280;6781;58.440;15.470;2023-11-22T11:34:48;102326.16;;;0.78;100.00
13420;BME280;6781;58.440;15.470;2023-11-22T11:37:17;102327.81;;;0.82;100.00
13420;BME280;6781;58.440;15.470;2023-11-22T11:39:45;102318.44;;;0.84;100.00
13420;BME280;6781;58.440;15.470;2023-11-22T11:42:11;102310.78;;;0.84;100.00
13420;BME280;6781;58.440;15.470;2023-11-22T11:44:45;102298.81;;;0.89;100.00
13420;BME280;6781;58.440;15.470;2023-11-22T11:47:17;102302.22;;;0.88;100.00
13420;BME280;6781;58.440;15.470;2023-11-22T11:49:43;102295.34;;;0.93;100.00
13420;BME280;6781;58.440;15.470;2023-11-22T11:52:11;102222.50;;;0.64;100.00
13420;BME280;6781;58.440;15.470;2023-11-22T11:54:40;102270.63;;;0.96;100.00
13420;BME280;6781;58.440;15.470;2023-11-22T11:57:07;102271.47;;;0.97;100.00
13420;BME280;6781;58.440;15.470;2023-11-22T11:59:34;102262.91;;;1.01;100.00
13420;BME280;6781;58.440;15.470;2023-11-22T12:02:01;102255.22;;;1.03;100.00
13420;BME280;6781;58.440;15.470;2023-11-22T12:04:30;102257.72;;;1.07;100.00
13420;BME280;6781;58.440;15.470;2023-11-22T12:06:57;102238.97;;;1.08;100.00
13420;BME280;6781;58.440;15.470;2023-11-22T12:09:26;102237.25;;;1.10;100.00
13420;BME280;6781;58.440;15.470;2023-11-22T12:11:53;102227.00;;;1.13;100.00
13420;BME280;6781;58.440;15.470;2023-11-22T12:14:20;102210.78;;;1.16;100.00
13420;BME280;6781;58.440;15.470;2023-11-22T12:16:46;102203.97;;;1.16;100.00
13420;BME280;6781;58.440;15.470;2023-11-22T12:19:20;102192.00;;;1.20;100.00
13420;BME280;6781;58.440;15.470;2023-11-22T12:21:47;102174.91;;;1.23;100.00
13420;BME280;6781;58.440;15.470;2023-11-22T12:24:14;102175.78;;;1.22;100.00
13420;BME280;6781;58.440;15.470;2023-11-22T12:26:45;102172.31;;;1.25;100.00
13420;BME280;6781;58.440;15.470;2023-11-22T12:29:14;102162.09;;;1.26;100.00
13420;BME280;6781;58.440;15.470;2023-11-22T12:31:44;102151.00;;;1.27;100.00
13420;BME280;6781;58.440;15.470;2023-11-22T12:34:11;102151.81;;;1.29;100.00
13420;BME280;6781;58.440;15.470;2023-11-22T12:36:38;102137.31;;;1.30;100.00
13420;BME280;6781;58.440;15.470;2023-11-22T12:39:06;102136.50;;;1.28;100.00
13420;BME280;6781;58.440;15.470;2023-11-22T12:41:33;102147.53;;;1.32;100.00
13420;BME280;6781;58.440;15.470;2023-11-22T12:44:05;102114.34;;;1.28;100.00
13420;BME280;6781;58.440;15.470;2023-11-22T12:46:44;102115.22;;;1.27;100.00